Aeroporto :
LOGIN :

Iscrizione | Disclaimer

   EN    FR    IT 

 










Sommario :    VFR   VFR Marginale   IFR   IFR Intensivo   IFR Molto Intensivo
Visibilità : 
Base nubi : 
>= 8 km
>= 3000ft
5 / 8 km
1000 / 3000 ft
1500m / 5 km
500 / 1000 ft
800 / 1500m
200 / 500 ft
< 800m
< 200 ft
Simboli :   Temporali  Nebbia  Neve Forte  Precipitazioni Forti  Vento > 20 kt
SIGMETs :   Varie  Temporali  Ghiacco  Turbolenza  Onda orograficha  Ceneri Vulcaniche






- Altitudine del aeroporto : 352 ft
- Codice IATA : ARW


LRAR - Arad International

ULTIMO METAR :
  • 301030Z 36015KT 9999 FEW035 10/00 Q1016

METARs OBSOLETI :
  • 301000Z 01014KT 340V040 9999 FEW033 10/01 Q1016
  • 300930Z 36013KT 9999 SCT032 10/02 Q1016
  • 300900Z 01013KT 340V050 9999 SCT030 10/03 Q1015
  • 300830Z 36012KT 9999 FEW030 10/03 Q1015
  • 300800Z 35012KT 320V020 CAVOK 09/03 Q1015

TAF TAF LRAR
Valido dal 30 a 09 ore il 30 a 18 ore UTC


300800Z 3009/3018 36017KT CAVOK
TEMPO 3010/3015 01017G30KT



MetMap, La meteo Aeronautica in un colpo d'occhio ! - Copyright ORBIFLY Dicembre 2007 - Disclaimer

ORBIFLY MET'MAP TEAM :

Programmazione e sviluppo : Alexandra Zaïnal
Concezione : Baudouin d'Aumeries
Aiuto per la programmazione : Marc-Olivier Méhu
Supporto tecnico e logistico : Manuel Goepfert
Aiuto per la traduzione : Arnaldo La Scala

Contatto : metmap@orbifly.com




FONTI E CREDITI :

   NOAA